Time;durP1;ratioP1;P1;durP2;ratioP2;P2;SDS_P1;SDS_P2;PMS_P1;PMS_P2;Temp;Humidity;BMP_temperature;BMP_pressure;BME280_temperature;BME280_humidity;BME280_pressure;Samples;Min_cycle;Max_cycle;Signal;HPM_P1;HPM_P2
2024/01/18 00:00:23;;;;;;;;;;;-2.00;99.90;;;;;;5070703;28;19977;-61
2024/01/18 00:02:48;;;;;;;;;;;-2.00;99.90;;;;;;5091262;28;19934;-61
2024/01/18 00:05:14;;;;;;;;;;;-2.00;99.90;;;;;;5066390;28;19935;-61
2024/01/18 00:07:39;;;;;;;;;;;-2.00;99.90;;;;;;5069163;28;19923;-61
2024/01/18 00:10:06;;;;;;;;;;;-2.00;99.90;;;;;;5070349;28;20296;-61
2024/01/18 00:12:31;;;;;;;;;;;-2.00;99.90;;;;;;5062648;28;19988;-61
2024/01/18 00:14:57;;;;;;;;;;;-2.00;99.90;;;;;;5074240;28;20382;-61
2024/01/18 00:17:22;;;;;;;;;;;-2.00;99.90;;;;;;5084225;28;19928;-61
2024/01/18 00:19:48;;;;;;;;;;;-2.00;99.90;;;;;;5070957;28;20360;-61
2024/01/18 00:22:14;;;;;;;;;;;-2.00;99.90;;;;;;5055426;28;20291;-61
2024/01/18 00:24:39;;;;;;;;;;;-2.00;99.90;;;;;;5061975;28;20129;-61
2024/01/18 00:27:06;;;;;;;;;;;-2.10;99.90;;;;;;5058217;28;20548;-61
2024/01/18 00:29:32;;;;;;;;;;;-2.00;99.90;;;;;;5065215;28;19924;-61
2024/01/18 00:31:58;;;;;;;;;;;-2.10;99.90;;;;;;5065015;28;20352;-61
2024/01/18 00:34:23;;;;;;;;;;;-2.10;99.90;;;;;;5085275;28;20551;-61
2024/01/18 00:36:49;;;;;;;;;;;-2.10;99.90;;;;;;5084258;28;20290;-61
2024/01/18 00:39:18;;;;;;;;;;;-2.20;99.90;;;;;;5059150;28;21921;-61
2024/01/18 00:41:44;;;;;;;;;;;-2.20;99.90;;;;;;5083749;28;20046;-61
2024/01/18 00:44:10;;;;;;;;;;;-2.10;99.90;;;;;;5067923;28;19927;-61
2024/01/18 00:46:36;;;;;;;;;;;-2.10;99.90;;;;;;5064390;28;19963;-61
2024/01/18 00:49:01;;;;;;;;;;;-2.10;99.90;;;;;;5055981;28;19939;-61
2024/01/18 00:51:27;;;;;;;;;;;-2.10;99.90;;;;;;5060869;28;20013;-61
2024/01/18 00:53:52;;;;;;;;;;;-2.10;99.90;;;;;;5050462;28;20305;-61
2024/01/18 00:56:18;;;;;;;;;;;-2.00;99.90;;;;;;5063946;28;19928;-61
2024/01/18 00:58:44;;;;;;;;;;;-2.10;99.90;;;;;;5096131;28;20003;-61
2024/01/18 01:01:10;;;;;;;;;;;-2.10;99.90;;;;;;5079509;28;19923;-61
2024/01/18 01:03:36;;;;;;;;;;;-2.00;99.90;;;;;;5060237;28;20382;-61
2024/01/18 01:06:01;;;;;;;;;;;-2.10;99.90;;;;;;5072600;28;19935;-61
2024/01/18 01:08:27;;;;;;;;;;;-2.10;99.90;;;;;;5090684;28;19932;-61
2024/01/18 01:10:53;;;;;;;;;;;-2.10;99.90;;;;;;5076215;28;19923;-61
2024/01/18 01:13:18;;;;;;;;;;;-2.10;99.90;;;;;;5078095;28;19924;-61
2024/01/18 01:15:44;;;;;;;;;;;-2.20;99.90;;;;;;5095001;28;19928;-61
2024/01/18 01:18:10;;;;;;;;;;;-2.20;99.90;;;;;;5057251;28;20008;-60
2024/01/18 01:20:36;;;;;;;;;;;-2.20;99.90;;;;;;5076286;28;19924;-61
2024/01/18 01:23:02;;;;;;;;;;;-2.20;99.90;;;;;;5071052;28;20332;-61
2024/01/18 01:25:28;;;;;;;;;;;-2.20;99.90;;;;;;5086376;28;19928;-61
2024/01/18 01:27:53;;;;;;;;;;;-2.20;99.90;;;;;;5076672;28;19989;-61
2024/01/18 01:30:19;;;;;;;;;;;-2.20;99.90;;;;;;5068418;28;19931;-61
2024/01/18 01:32:45;;;;;;;;;;;-2.10;99.90;;;;;;5088934;28;19971;-61
2024/01/18 01:35:11;;;;;;;;;;;-2.10;99.90;;;;;;5079151;28;19923;-61
2024/01/18 01:37:37;;;;;;;;;;;-2.10;99.90;;;;;;5063334;28;19919;-61
2024/01/18 01:40:05;;;;;;;;;;;-2.10;99.90;;;;;;5061169;28;19931;-61
2024/01/18 01:42:30;;;;;;;;;;;-2.10;99.90;;;;;;5088378;28;19934;-61
2024/01/18 01:44:56;;;;;;;;;;;-2.00;99.90;;;;;;5076124;28;19924;-60
2024/01/18 01:47:21;;;;;;;;;;;-2.00;99.90;;;;;;5091021;28;19926;-61
2024/01/18 01:49:48;;;;;;;;;;;-1.90;99.90;;;;;;5078962;28;20098;-61
2024/01/18 01:52:14;;;;;;;;;;;-1.80;99.90;;;;;;5096463;28;19985;-61
2024/01/18 01:54:40;;;;;;;;;;;-1.80;99.90;;;;;;5074632;28;19924;-61
2024/01/18 01:57:06;;;;;;;;;;;-1.80;99.90;;;;;;5070410;28;19927;-61
2024/01/18 01:59:32;;;;;;;;;;;-1.70;99.90;;;;;;5070775;28;19934;-61
2024/01/18 02:01:58;;;;;;;;;;;-1.80;99.90;;;;;;5075246;28;19930;-61
2024/01/18 02:04:24;;;;;;;;;;;-1.70;99.90;;;;;;5069679;28;19928;-61
2024/01/18 02:06:50;;;;;;;;;;;-1.80;99.90;;;;;;5078276;28;19924;-61
2024/01/18 02:09:16;;;;;;;;;;;-1.80;99.90;;;;;;5066773;28;19924;-61
2024/01/18 02:11:42;;;;;;;;;;;-1.80;99.90;;;;;;5072044;28;19947;-61
2024/01/18 02:14:07;;;;;;;;;;;-1.90;99.90;;;;;;5071455;28;19930;-61
2024/01/18 02:16:33;;;;;;;;;;;-1.90;99.90;;;;;;5070095;28;19930;-61
2024/01/18 02:18:59;;;;;;;;;;;-2.00;99.90;;;;;;5071918;28;20010;-61
2024/01/18 02:21:26;;;;;;;;;;;-2.00;99.90;;;;;;5090691;28;19928;-61
2024/01/18 02:23:57;;;;;;;;;;;-2.00;99.90;;;;;;5070839;28;19927;-61
2024/01/18 02:26:23;;;;;;;;;;;-2.00;99.90;;;;;;5068748;28;20013;-61
2024/01/18 02:28:52;;;;;;;;;;;-2.10;99.90;;;;;;5090219;28;19952;-61
2024/01/18 02:31:18;;;;;;;;;;;-2.10;99.90;;;;;;5094936;28;19919;-61
2024/01/18 02:33:43;;;;;;;;;;;-2.10;99.90;;;;;;5073065;28;19959;-61
2024/01/18 02:36:09;;;;;;;;;;;-2.10;99.90;;;;;;5088793;28;20255;-61
2024/01/18 02:38:35;;;;;;;;;;;-2.10;99.90;;;;;;5074477;28;19935;-61
2024/01/18 02:41:00;;;;;;;;;;;-2.10;99.90;;;;;;5087647;28;19927;-61
2024/01/18 02:43:26;;;;;;;;;;;-2.20;99.90;;;;;;5064622;28;19927;-61
2024/01/18 02:45:52;;;;;;;;;;;-2.20;99.90;;;;;;5053445;28;20983;-61
2024/01/18 02:48:17;;;;;;;;;;;-2.20;99.90;;;;;;5089550;28;19931;-61
2024/01/18 02:50:43;;;;;;;;;;;-2.20;99.90;;;;;;5063115;28;20010;-61
2024/01/18 02:53:08;;;;;;;;;;;-2.20;99.90;;;;;;5047255;28;20271;-61
2024/01/18 02:55:34;;;;;;;;;;;-2.20;99.90;;;;;;5064748;28;20481;-61
2024/01/18 02:58:00;;;;;;;;;;;-2.30;99.90;;;;;;5068033;28;19933;-61
2024/01/18 03:00:25;;;;;;;;;;;-2.30;99.90;;;;;;5075083;28;19924;-61
2024/01/18 03:02:51;;;;;;;;;;;-2.30;99.90;;;;;;5059344;28;19957;-61
2024/01/18 03:05:16;;;;;;;;;;;-2.30;99.90;;;;;;5073812;28;20004;-61
2024/01/18 03:07:42;;;;;;;;;;;-2.30;99.90;;;;;;5065692;28;20026;-61
2024/01/18 03:10:08;;;;;;;;;;;-2.20;99.90;;;;;;5069475;28;20282;-61
2024/01/18 03:12:37;;;;;;;;;;;-2.20;99.90;;;;;;5074806;28;19924;-61
2024/01/18 03:15:09;;;;;;;;;;;-2.20;99.90;;;;;;5093128;28;19949;-61
2024/01/18 03:17:35;;;;;;;;;;;-2.20;99.90;;;;;;5066926;28;19927;-61
2024/01/18 03:20:06;;;;;;;;;;;-2.20;99.90;;;;;;5073348;28;19927;-61
2024/01/18 03:22:39;;;;;;;;;;;-2.20;99.90;;;;;;5079016;28;20431;-61
2024/01/18 03:25:04;;;;;;;;;;;-2.20;99.90;;;;;;5072296;28;20423;-61
2024/01/18 03:27:30;;;;;;;;;;;-2.20;99.90;;;;;;5066954;28;19927;-61
2024/01/18 03:29:55;;;;;;;;;;;-2.20;99.90;;;;;;5066269;28;20374;-61
2024/01/18 03:32:21;;;;;;;;;;;-2.20;99.90;;;;;;5073728;28;19995;-61
2024/01/18 03:34:47;;;;;;;;;;;-2.20;99.90;;;;;;5068169;28;19967;-61
2024/01/18 03:37:13;;;;;;;;;;;-2.10;99.90;;;;;;5069556;28;20350;-61
2024/01/18 03:39:38;;;;;;;;;;;-2.00;99.90;;;;;;5068554;28;19980;-61
2024/01/18 03:42:04;;;;;;;;;;;-1.90;99.90;;;;;;5063881;28;20014;-61
2024/01/18 03:44:30;;;;;;;;;;;-1.90;99.90;;;;;;5086802;28;19920;-61
2024/01/18 03:46:56;;;;;;;;;;;-1.80;99.90;;;;;;5053520;28;19939;-61
2024/01/18 03:49:21;;;;;;;;;;;-1.80;99.90;;;;;;5054865;28;19928;-61
2024/01/18 03:51:47;;;;;;;;;;;-1.70;99.90;;;;;;5066247;28;20463;-61
2024/01/18 03:54:13;;;;;;;;;;;-1.70;99.90;;;;;;5048880;28;19930;-61
2024/01/18 03:56:38;;;;;;;;;;;-1.60;99.90;;;;;;5069368;28;20386;-61
2024/01/18 03:59:04;;;;;;;;;;;-1.50;99.90;;;;;;5089413;28;20516;-61
2024/01/18 04:01:32;;;;;;;;;;;-1.40;99.90;;;;;;5085684;28;20027;-61
2024/01/18 04:03:59;;;;;;;;;;;-1.40;99.90;;;;;;5093490;28;20021;-61
2024/01/18 04:06:24;;;;;;;;;;;-1.20;99.90;;;;;;5092828;28;19968;-61
2024/01/18 04:08:50;;;;;;;;;;;-1.20;99.90;;;;;;5085122;28;19932;-61
2024/01/18 04:11:15;;;;;;;;;;;-1.10;99.90;;;;;;5090134;28;20756;-61
2024/01/18 04:13:41;;;;;;;;;;;-1.00;99.90;;;;;;5090571;28;19928;-61
2024/01/18 04:16:07;;;;;;;;;;;-0.90;99.90;;;;;;5089798;28;19927;-61
2024/01/18 04:18:33;;;;;;;;;;;-0.90;99.90;;;;;;5082227;28;19935;-61
2024/01/18 04:20:59;;;;;;;;;;;-0.80;99.90;;;;;;5094075;28;19924;-61
2024/01/18 04:23:24;;;;;;;;;;;-0.80;99.90;;;;;;5092246;28;19946;-61
2024/01/18 04:25:51;;;;;;;;;;;-0.70;99.90;;;;;;5092091;28;19929;-61
2024/01/18 04:28:18;;;;;;;;;;;-0.80;99.90;;;;;;5099712;28;20022;-61
2024/01/18 04:30:43;;;;;;;;;;;-0.80;99.90;;;;;;5081143;28;20014;-61
2024/01/18 04:33:09;;;;;;;;;;;-0.80;99.90;;;;;;5082033;28;20382;-60
2024/01/18 04:35:35;;;;;;;;;;;-0.80;99.90;;;;;;5087001;27;20037;-61
2024/01/18 04:38:01;;;;;;;;;;;-0.90;99.90;;;;;;5080036;27;19932;-61
2024/01/18 04:40:26;;;;;;;;;;;-0.90;99.90;;;;;;5088303;27;20354;-61
2024/01/18 04:42:53;;;;;;;;;;;-1.00;99.90;;;;;;5080075;27;27434;-61
2024/01/18 04:45:19;;;;;;;;;;;-1.10;99.90;;;;;;5084057;27;19927;-60
2024/01/18 04:47:45;;;;;;;;;;;-1.10;99.90;;;;;;5067936;28;20289;-61
2024/01/18 04:50:11;;;;;;;;;;;-1.20;99.90;;;;;;5080155;27;19928;-61
2024/01/18 04:52:36;;;;;;;;;;;-1.30;99.90;;;;;;5081238;28;19981;-60
2024/01/18 04:55:05;;;;;;;;;;;-1.40;99.90;;;;;;5074775;27;20305;-61
2024/01/18 04:57:31;;;;;;;;;;;-1.40;99.90;;;;;;5085042;28;19932;-61
2024/01/18 04:59:58;;;;;;;;;;;-1.50;99.90;;;;;;5088785;28;20187;-61
2024/01/18 05:02:23;;;;;;;;;;;-1.50;99.90;;;;;;5081980;28;19927;-61
2024/01/18 05:04:49;;;;;;;;;;;-1.50;99.90;;;;;;5083735;27;20409;-60
2024/01/18 05:07:14;;;;;;;;;;;-1.60;99.90;;;;;;5083017;27;19953;-61
2024/01/18 05:09:40;;;;;;;;;;;-1.60;99.90;;;;;;5079232;27;21715;-61
2024/01/18 05:12:07;;;;;;;;;;;-1.60;99.90;;;;;;5081780;27;20281;-60
2024/01/18 05:14:32;;;;;;;;;;;-1.70;99.90;;;;;;5087828;27;20390;-61
2024/01/18 05:17:05;;;;;;;;;;;-1.60;99.90;;;;;;5076491;28;19927;-61
2024/01/18 05:19:31;;;;;;;;;;;-1.70;99.90;;;;;;5088237;27;20446;-60
2024/01/18 05:21:57;;;;;;;;;;;-1.60;99.90;;;;;;5082728;27;19924;-61
2024/01/18 05:24:22;;;;;;;;;;;-1.70;99.90;;;;;;5084288;27;19924;-61
2024/01/18 05:26:48;;;;;;;;;;;-1.60;99.90;;;;;;5068337;28;19924;-60
2024/01/18 05:29:13;;;;;;;;;;;-1.70;99.90;;;;;;5083010;27;20298;-61
2024/01/18 05:31:39;;;;;;;;;;;-1.70;99.90;;;;;;5083883;27;19927;-61
2024/01/18 05:34:05;;;;;;;;;;;-1.70;99.90;;;;;;5080623;27;20302;-61
2024/01/18 05:36:31;;;;;;;;;;;-1.70;99.90;;;;;;5077772;27;20022;-61
2024/01/18 05:38:56;;;;;;;;;;;-1.70;99.90;;;;;;5079953;28;19963;-61
2024/01/18 05:41:22;;;;;;;;;;;-1.70;99.90;;;;;;5082268;27;19928;-61
2024/01/18 05:43:47;;;;;;;;;;;-1.70;99.90;;;;;;5075569;27;19938;-61
2024/01/18 05:46:13;;;;;;;;;;;-1.70;99.90;;;;;;5089406;27;20375;-61
2024/01/18 05:48:39;;;;;;;;;;;-1.70;99.90;;;;;;5074273;27;20002;-61
2024/01/18 05:51:05;;;;;;;;;;;-1.70;99.90;;;;;;5073923;28;19923;-61
2024/01/18 05:53:31;;;;;;;;;;;-1.70;99.90;;;;;;5079212;27;19981;-61
2024/01/18 05:55:59;;;;;;;;;;;-1.60;99.90;;;;;;5065760;28;19931;-61
2024/01/18 05:58:25;;;;;;;;;;;-1.60;99.90;;;;;;5030101;28;19928;-61
2024/01/18 06:00:51;;;;;;;;;;;-1.50;99.90;;;;;;5081349;28;19981;-61
2024/01/18 06:03:17;;;;;;;;;;;-1.50;99.90;;;;;;5059700;28;19927;-61
2024/01/18 06:05:43;;;;;;;;;;;-1.40;99.90;;;;;;5058950;28;19931;-61
2024/01/18 06:08:08;;;;;;;;;;;-1.30;99.90;;;;;;5051848;28;19928;-61
2024/01/18 06:10:34;;;;;;;;;;;-1.20;99.90;;;;;;5057910;28;19934;-60
2024/01/18 06:12:59;;;;;;;;;;;-1.20;99.90;;;;;;5061495;28;20659;-60
2024/01/18 06:15:25;;;;;;;;;;;-1.20;99.90;;;;;;5078183;28;20400;-61
2024/01/18 06:17:51;;;;;;;;;;;-1.20;99.90;;;;;;5052298;28;19942;-61
2024/01/18 06:20:16;;;;;;;;;;;-1.20;99.90;;;;;;5073736;28;20406;-60
2024/01/18 06:22:42;;;;;;;;;;;-1.20;99.90;;;;;;5055538;28;20006;-61
2024/01/18 06:25:07;;;;;;;;;;;-1.30;99.90;;;;;;5061146;28;20421;-61
2024/01/18 06:27:34;;;;;;;;;;;-1.30;99.90;;;;;;5072150;28;19934;-61
2024/01/18 06:30:00;;;;;;;;;;;-1.30;99.90;;;;;;5055319;28;19928;-63
2024/01/18 06:32:26;;;;;;;;;;;-1.30;99.90;;;;;;5050430;28;19990;-67
2024/01/18 06:34:51;;;;;;;;;;;-1.30;99.90;;;;;;5049249;28;19947;-68
2024/01/18 06:37:17;;;;;;;;;;;-1.40;99.90;;;;;;5060215;28;20000;-67
2024/01/18 06:39:42;;;;;;;;;;;-1.40;99.90;;;;;;5059050;28;20007;-67
2024/01/18 06:42:08;;;;;;;;;;;-1.30;99.90;;;;;;5030514;28;19928;-68
2024/01/18 06:44:34;;;;;;;;;;;-1.30;99.90;;;;;;5052034;28;20367;-67
2024/01/18 06:47:00;;;;;;;;;;;-1.30;99.90;;;;;;5049201;28;19928;-68
2024/01/18 06:49:26;;;;;;;;;;;-1.30;99.90;;;;;;5040107;28;20009;-67
2024/01/18 06:51:52;;;;;;;;;;;-1.30;99.90;;;;;;5047867;28;19927;-67
2024/01/18 06:54:21;;;;;;;;;;;-1.30;99.90;;;;;;5052510;28;19928;-67
2024/01/18 06:56:47;;;;;;;;;;;-1.20;99.90;;;;;;5053419;28;20009;-67
2024/01/18 06:59:14;;;;;;;;;;;-1.20;99.90;;;;;;5042478;28;19945;-67
2024/01/18 07:01:39;;;;;;;;;;;-1.20;99.90;;;;;;5055504;28;19935;-67
2024/01/18 07:04:05;;;;;;;;;;;-1.20;99.90;;;;;;5086490;28;19923;-67
2024/01/18 07:06:31;;;;;;;;;;;-1.10;99.90;;;;;;5063320;28;20540;-66
2024/01/18 07:08:56;;;;;;;;;;;-1.10;99.90;;;;;;5052509;28;19927;-67
2024/01/18 07:11:22;;;;;;;;;;;-1.10;99.90;;;;;;5068573;28;19976;-67
2024/01/18 07:13:47;;;;;;;;;;;-1.00;99.90;;;;;;5067236;28;20435;-67
2024/01/18 07:16:13;;;;;;;;;;;-1.00;99.90;;;;;;5060002;28;21342;-67
2024/01/18 07:18:39;;;;;;;;;;;-1.00;99.90;;;;;;5057057;28;20366;-67
2024/01/18 07:21:04;;;;;;;;;;;-1.00;99.90;;;;;;5052851;28;20014;-67
2024/01/18 07:23:30;;;;;;;;;;;-1.00;99.90;;;;;;5065596;28;19927;-67
2024/01/18 07:25:56;;;;;;;;;;;-1.00;99.90;;;;;;5038968;28;20285;-67
2024/01/18 07:28:22;;;;;;;;;;;-1.00;99.90;;;;;;5054519;28;20539;-61
2024/01/18 07:30:48;;;;;;;;;;;-1.10;99.90;;;;;;5035698;28;20088;-60
2024/01/18 07:33:14;;;;;;;;;;;-1.20;99.90;;;;;;5058856;28;19928;-58
2024/01/18 07:35:39;;;;;;;;;;;-1.20;99.90;;;;;;5078982;28;19924;-58
2024/01/18 07:38:05;;;;;;;;;;;-1.20;99.90;;;;;;5085984;28;20445;-58
2024/01/18 07:40:31;;;;;;;;;;;-1.30;99.90;;;;;;5066522;28;19935;-60
2024/01/18 07:42:56;;;;;;;;;;;-1.40;99.90;;;;;;5081118;28;19928;-59
2024/01/18 07:45:22;;;;;;;;;;;-1.40;99.90;;;;;;5085240;28;19928;-59
2024/01/18 07:47:48;;;;;;;;;;;-1.50;99.90;;;;;;5086129;28;20491;-59
2024/01/18 07:50:13;;;;;;;;;;;-1.50;99.90;;;;;;5068534;28;20339;-59
2024/01/18 07:52:39;;;;;;;;;;;-1.60;99.90;;;;;;5085711;28;19950;-60
2024/01/18 07:55:06;;;;;;;;;;;-1.60;99.90;;;;;;5067329;28;20018;-59
2024/01/18 07:57:32;;;;;;;;;;;-1.70;99.90;;;;;;5059920;28;19955;-58
2024/01/18 07:59:58;;;;;;;;;;;-1.70;99.90;;;;;;5073525;28;19923;-58
2024/01/18 08:02:23;;;;;;;;;;;-1.70;99.90;;;;;;5062262;28;19931;-59
2024/01/18 08:04:49;;;;;;;;;;;-1.70;99.90;;;;;;5067711;28;19928;-59
2024/01/18 08:07:15;;;;;;;;;;;-1.70;99.90;;;;;;5073074;28;19939;-59
2024/01/18 08:09:41;;;;;;;;;;;-1.70;99.90;;;;;;5088477;28;19928;-58
2024/01/18 08:12:07;;;;;;;;;;;-1.70;99.90;;;;;;5088718;28;19926;-58
2024/01/18 08:14:33;;;;;;;;;;;-1.70;99.90;;;;;;5090847;28;19949;-59
2024/01/18 08:16:58;;;;;;;;;;;-1.70;99.90;;;;;;5084482;28;19928;-60
2024/01/18 08:19:24;;;;;;;;;;;-1.70;99.90;;;;;;5087964;28;19935;-58
2024/01/18 08:21:50;;;;;;;;;;;-1.60;99.90;;;;;;5067111;28;19928;-58
2024/01/18 08:24:16;;;;;;;;;;;-1.50;99.90;;;;;;5066217;28;20321;-58
2024/01/18 08:26:44;;;;;;;;;;;-1.20;99.90;;;;;;5089562;28;20019;-59
2024/01/18 08:29:09;;;;;;;;;;;-1.20;99.90;;;;;;5087084;28;19951;-60
2024/01/18 08:31:35;;;;;;;;;;;-1.10;99.90;;;;;;5095023;28;19928;-58
2024/01/18 08:34:00;;;;;;;;;;;-1.00;99.90;;;;;;5077025;28;19978;-58
2024/01/18 08:36:26;;;;;;;;;;;-0.90;99.90;;;;;;5072375;28;19923;-59
2024/01/18 08:38:54;;;;;;;;;;;-0.90;99.90;;;;;;5099080;28;19927;-58
2024/01/18 08:41:20;;;;;;;;;;;-0.90;99.90;;;;;;5083111;28;19924;-59
2024/01/18 08:43:47;;;;;;;;;;;-0.90;99.90;;;;;;5098273;28;19924;-59
2024/01/18 08:46:14;;;;;;;;;;;-0.90;99.90;;;;;;5072833;28;19931;-59
2024/01/18 08:48:40;;;;;;;;;;;-0.90;99.90;;;;;;5089781;28;21871;-59
2024/01/18 08:51:12;;;;;;;;;;;-0.90;99.90;;;;;;5077497;28;20362;-58
2024/01/18 08:53:38;;;;;;;;;;;-0.80;99.90;;;;;;5075503;28;19928;-58
2024/01/18 08:56:04;;;;;;;;;;;-0.80;99.90;;;;;;5097076;27;19968;-59
2024/01/18 08:58:30;;;;;;;;;;;-0.80;99.90;;;;;;5117674;27;20022;-59
2024/01/18 09:00:55;;;;;;;;;;;-0.70;99.90;;;;;;5090343;27;20205;-60
2024/01/18 09:03:21;;;;;;;;;;;-0.70;99.90;;;;;;5092899;27;19927;-59
2024/01/18 09:05:46;;;;;;;;;;;-0.60;99.90;;;;;;5114009;27;19976;-58
2024/01/18 09:08:12;;;;;;;;;;;-0.40;99.90;;;;;;5119741;27;19923;-58
2024/01/18 09:10:38;;;;;;;;;;;-0.40;99.90;;;;;;5110763;27;20381;-58
2024/01/18 09:13:04;;;;;;;;;;;-0.20;99.90;;;;;;5095728;27;19923;-58
2024/01/18 09:15:29;;;;;;;;;;;0.00;99.90;;;;;;5096983;27;19923;-58
2024/01/18 09:17:55;;;;;;;;;;;0.20;99.90;;;;;;5115216;27;20017;-59
2024/01/18 09:20:20;;;;;;;;;;;0.40;99.90;;;;;;5111978;27;20294;-59
2024/01/18 09:22:46;;;;;;;;;;;0.40;99.90;;;;;;5119647;27;19924;-59
2024/01/18 09:25:11;;;;;;;;;;;0.40;99.90;;;;;;5115318;27;20010;-58
2024/01/18 09:27:37;;;;;;;;;;;0.50;99.90;;;;;;5090784;27;19927;-60
2024/01/18 09:30:03;;;;;;;;;;;0.60;99.90;;;;;;5096334;27;19935;-59
2024/01/18 09:32:29;;;;;;;;;;;0.70;99.90;;;;;;5091117;27;19986;-59
2024/01/18 09:34:54;;;;;;;;;;;0.80;99.90;;;;;;5086131;27;20285;-60
2024/01/18 09:37:20;;;;;;;;;;;0.90;99.90;;;;;;5089054;27;19977;-59
2024/01/18 09:39:45;;;;;;;;;;;1.00;99.90;;;;;;5104565;27;19938;-59
2024/01/18 09:42:14;;;;;;;;;;;1.00;99.90;;;;;;5108499;27;20450;-59
2024/01/18 09:44:43;;;;;;;;;;;1.00;99.90;;;;;;5112375;27;19923;-59
2024/01/18 09:47:10;;;;;;;;;;;1.00;99.90;;;;;;5109736;27;19927;-60
2024/01/18 09:49:39;;;;;;;;;;;1.00;99.90;;;;;;5107776;27;20139;-59
2024/01/18 09:52:05;;;;;;;;;;;0.90;99.90;;;;;;5084510;27;20090;-58
2024/01/18 09:54:31;;;;;;;;;;;0.80;99.90;;;;;;5087237;27;19927;-59
2024/01/18 09:56:59;;;;;;;;;;;0.80;99.90;;;;;;5084610;28;19938;-58
2024/01/18 09:59:27;;;;;;;;;;;0.70;99.90;;;;;;5091926;28;19951;-59
2024/01/18 10:01:52;;;;;;;;;;;0.70;99.90;;;;;;5069290;28;19936;-59
2024/01/18 10:04:19;;;;;;;;;;;0.70;99.90;;;;;;5074090;28;20333;-59
2024/01/18 10:06:44;;;;;;;;;;;0.70;99.90;;;;;;5091245;28;19934;-59
2024/01/18 10:09:14;;;;;;;;;;;0.70;99.90;;;;;;5070163;27;19928;-58
2024/01/18 10:11:41;;;;;;;;;;;0.80;99.90;;;;;;5090557;28;19939;-59
2024/01/18 10:14:06;;;;;;;;;;;0.80;99.90;;;;;;5091660;28;20287;-59
2024/01/18 10:16:33;;;;;;;;;;;0.90;99.90;;;;;;5070758;28;19924;-58
2024/01/18 10:19:00;;;;;;;;;;;1.00;99.90;;;;;;5067195;28;20479;-59
2024/01/18 10:21:26;;;;;;;;;;;1.00;99.90;;;;;;5089899;28;20019;-58
2024/01/18 10:23:53;;;;;;;;;;;1.10;99.90;;;;;;5091482;28;19931;-60
2024/01/18 10:26:19;;;;;;;;;;;1.10;99.90;;;;;;5063052;28;19923;-59
2024/01/18 10:28:44;;;;;;;;;;;1.20;99.90;;;;;;5068449;28;19940;-59
2024/01/18 10:31:10;;;;;;;;;;;1.20;99.90;;;;;;5075618;27;20299;-58
2024/01/18 10:33:36;;;;;;;;;;;1.20;99.90;;;;;;5062719;27;20585;-59
2024/01/18 10:36:01;;;;;;;;;;;1.30;99.90;;;;;;5090740;27;19924;-58
2024/01/18 10:38:29;;;;;;;;;;;1.30;99.90;;;;;;5087472;28;20374;-60
2024/01/18 10:40:54;;;;;;;;;;;1.50;99.90;;;;;;5086766;28;19924;-59
2024/01/18 10:43:20;;;;;;;;;;;1.70;99.90;;;;;;5068111;28;19972;-60
2024/01/18 10:45:46;;;;;;;;;;;1.80;99.90;;;;;;5090034;28;19924;-59
2024/01/18 10:48:11;;;;;;;;;;;2.00;99.90;;;;;;5090966;27;20014;-59
2024/01/18 10:50:37;;;;;;;;;;;1.80;99.90;;;;;;5051240;28;19932;-59
2024/01/18 10:53:03;;;;;;;;;;;1.70;99.90;;;;;;5083524;27;21279;-61
2024/01/18 10:55:28;;;;;;;;;;;1.70;99.90;;;;;;5057370;28;20286;-61
2024/01/18 10:57:54;;;;;;;;;;;1.60;99.90;;;;;;5056575;28;19932;-60
2024/01/18 11:00:20;;;;;;;;;;;1.60;99.90;;;;;;5080570;28;19928;-60
2024/01/18 11:02:45;;;;;;;;;;;1.50;99.90;;;;;;5053836;28;19928;-58
2024/01/18 11:05:17;;;;;;;;;;;1.50;99.90;;;;;;5076709;28;19927;-60
2024/01/18 11:07:42;;;;;;;;;;;1.40;99.90;;;;;;5060848;28;19928;-59
2024/01/18 11:10:12;;;;;;;;;;;1.60;99.90;;;;;;5054605;28;19974;-60
2024/01/18 11:12:42;;;;;;;;;;;1.70;99.90;;;;;;5062170;28;19928;-59
2024/01/18 11:15:10;;;;;;;;;;;1.90;99.90;;;;;;5078291;28;19928;-60
2024/01/18 11:17:42;;;;;;;;;;;2.20;99.90;;;;;;5083006;28;20021;-60
2024/01/18 11:20:08;;;;;;;;;;;2.40;99.90;;;;;;5079353;28;20465;-60
2024/01/18 11:22:35;;;;;;;;;;;2.70;99.90;;;;;;5057432;28;20042;-60
2024/01/18 11:25:04;;;;;;;;;;;2.90;99.90;;;;;;5080169;28;20044;-61
2024/01/18 11:27:34;;;;;;;;;;;3.00;99.90;;;;;;5058144;28;20306;-60
2024/01/18 11:29:59;;;;;;;;;;;3.20;99.90;;;;;;5058033;28;19986;-60
2024/01/18 11:32:25;;;;;;;;;;;3.30;99.90;;;;;;5082138;28;19928;-60
2024/01/18 11:34:54;;;;;;;;;;;3.30;99.90;;;;;;5069146;28;19973;-60
2024/01/18 11:37:24;;;;;;;;;;;3.30;99.90;;;;;;5066580;28;20621;-61
2024/01/18 11:39:50;;;;;;;;;;;3.30;99.90;;;;;;5042269;28;20003;-60
2024/01/18 11:42:20;;;;;;;;;;;3.20;99.90;;;;;;5060181;28;20019;-60
2024/01/18 11:45:04;;;;;;;;;;;3.20;99.90;;;;;;5059175;28;19999;-59
2024/01/18 11:47:34;;;;;;;;;;;3.20;99.90;;;;;;5060344;28;19924;-60
2024/01/18 11:50:07;;;;;;;;;;;3.30;99.90;;;;;;5074601;28;20393;-60
2024/01/18 11:52:34;;;;;;;;;;;3.30;99.90;;;;;;5056065;28;19924;-60
2024/01/18 11:55:00;;;;;;;;;;;3.30;99.90;;;;;;5059700;28;20565;-61
2024/01/18 11:57:26;;;;;;;;;;;3.20;99.90;;;;;;5069287;28;19975;-61
2024/01/18 11:59:52;;;;;;;;;;;3.30;99.90;;;;;;5080985;28;19928;-60
2024/01/18 12:02:19;;;;;;;;;;;3.30;99.90;;;;;;5081501;28;19928;-61
2024/01/18 12:04:45;;;;;;;;;;;3.40;99.90;;;;;;5078546;28;20053;-61
2024/01/18 12:07:11;;;;;;;;;;;3.40;99.90;;;;;;5078854;28;19928;-61
2024/01/18 12:09:37;;;;;;;;;;;3.40;99.90;;;;;;5078115;28;19923;-61
2024/01/18 12:12:06;;;;;;;;;;;3.40;99.90;;;;;;5062174;28;19980;-61
2024/01/18 12:14:32;;;;;;;;;;;3.30;99.90;;;;;;5078598;28;19928;-60
2024/01/18 12:16:58;;;;;;;;;;;3.30;99.90;;;;;;5071716;28;20002;-60
2024/01/18 12:19:34;;;;;;;;;;;3.30;99.90;;;;;;5078524;28;20593;-61
2024/01/18 12:22:18;;;;;;;;;;;3.20;99.90;;;;;;5072432;28;19950;-60
2024/01/18 12:24:49;;;;;;;;;;;3.20;99.90;;;;;;5069838;28;19953;-61
2024/01/18 12:27:15;;;;;;;;;;;3.20;99.90;;;;;;5061075;28;20631;-60
2024/01/18 12:29:41;;;;;;;;;;;3.10;99.90;;;;;;5075466;28;19931;-60
2024/01/18 12:32:08;;;;;;;;;;;3.20;99.90;;;;;;5077957;28;19968;-61
2024/01/18 12:34:34;;;;;;;;;;;3.10;99.90;;;;;;5077892;28;20393;-60
2024/01/18 12:37:00;;;;;;;;;;;3.10;99.90;;;;;;5077567;28;19934;-61
2024/01/18 12:39:26;;;;;;;;;;;3.10;99.90;;;;;;5075153;28;19928;-60
2024/01/18 12:41:53;;;;;;;;;;;3.00;99.90;;;;;;5076729;27;19999;-61
2024/01/18 12:44:19;;;;;;;;;;;3.00;99.90;;;;;;5074556;28;20366;-60
2024/01/18 12:46:46;;;;;;;;;;;3.10;99.90;;;;;;5075404;28;19934;-60
2024/01/18 12:49:11;;;;;;;;;;;3.00;99.90;;;;;;5056536;28;19923;-61
2024/01/18 12:51:37;;;;;;;;;;;3.10;99.90;;;;;;5077075;28;19973;-61
2024/01/18 12:54:03;;;;;;;;;;;3.20;99.90;;;;;;5073335;28;19928;-61
2024/01/18 12:56:29;;;;;;;;;;;3.20;99.90;;;;;;5077142;28;19939;-60
2024/01/18 12:58:55;;;;;;;;;;;3.30;99.90;;;;;;5063056;28;20597;-60
2024/01/18 13:01:24;;;;;;;;;;;3.40;99.90;;;;;;5075998;28;19927;-61
2024/01/18 13:03:50;;;;;;;;;;;3.40;99.90;;;;;;5062175;28;20014;-61
2024/01/18 13:06:16;;;;;;;;;;;3.60;99.90;;;;;;5045312;28;19924;-61
2024/01/18 13:08:42;;;;;;;;;;;3.80;99.90;;;;;;5081596;28;21355;-60
2024/01/18 13:11:07;;;;;;;;;;;4.00;99.90;;;;;;5073494;28;19928;-61
2024/01/18 13:13:33;;;;;;;;;;;4.20;99.90;;;;;;5056453;28;19935;-61
2024/01/18 13:15:59;;;;;;;;;;;4.10;99.90;;;;;;5060212;28;20402;-60
2024/01/18 13:18:27;;;;;;;;;;;4.20;99.90;;;;;;5052635;28;19932;-60
2024/01/18 13:20:53;;;;;;;;;;;4.20;99.90;;;;;;5059785;28;19930;-61
2024/01/18 13:23:20;;;;;;;;;;;4.10;99.90;;;;;;5061089;28;20403;-61
2024/01/18 13:25:46;;;;;;;;;;;4.10;99.90;;;;;;5074910;28;19928;-61
2024/01/18 13:28:11;;;;;;;;;;;4.10;99.90;;;;;;5077229;28;19923;-61
2024/01/18 13:30:37;;;;;;;;;;;4.10;99.90;;;;;;5075147;28;20054;-61
2024/01/18 13:33:03;;;;;;;;;;;4.30;99.90;;;;;;5048426;28;19928;-60
2024/01/18 13:35:28;;;;;;;;;;;4.40;99.90;;;;;;5075804;28;20279;-61
2024/01/18 13:37:54;;;;;;;;;;;4.50;99.90;;;;;;5056482;28;20298;-61
2024/01/18 13:40:19;;;;;;;;;;;4.70;99.90;;;;;;5062535;28;20053;-61
2024/01/18 13:42:45;;;;;;;;;;;4.70;99.90;;;;;;5054193;28;20011;-61
2024/01/18 13:45:11;;;;;;;;;;;4.80;99.90;;;;;;5060385;28;19934;-60
2024/01/18 13:47:36;;;;;;;;;;;4.80;99.90;;;;;;5081540;28;19924;-60
2024/01/18 13:50:02;;;;;;;;;;;4.90;99.90;;;;;;5040618;28;20993;-61
2024/01/18 13:52:28;;;;;;;;;;;4.90;99.90;;;;;;5064072;28;20303;-61
2024/01/18 13:54:54;;;;;;;;;;;4.90;99.90;;;;;;5061258;28;19956;-61
2024/01/18 13:57:20;;;;;;;;;;;4.80;99.90;;;;;;5086286;28;20023;-61
2024/01/18 13:59:46;;;;;;;;;;;4.80;99.90;;;;;;5045721;28;20795;-60
2024/01/18 14:02:11;;;;;;;;;;;4.80;99.90;;;;;;5078706;28;19959;-61
2024/01/18 14:04:37;;;;;;;;;;;4.80;99.90;;;;;;5055458;28;19971;-61
2024/01/18 14:07:03;;;;;;;;;;;4.70;99.90;;;;;;5061998;28;19930;-61
2024/01/18 14:09:28;;;;;;;;;;;4.70;99.90;;;;;;5067228;28;19924;-61
2024/01/18 14:11:54;;;;;;;;;;;4.60;99.90;;;;;;5063597;28;20291;-61
2024/01/18 14:14:19;;;;;;;;;;;4.60;99.90;;;;;;5048881;28;20532;-61